Bf Caroda — V2CV5 — position and weather

sailwx.info

Track history (hours):
 
Tides and Currents Weather Stations Pressure Air Temp Water Temp Dewpoint Dewpoint Depression Visibility Wind Speed Wind Dir Waves Ship Positions

Bf Caroda

Last reported at 2016-Feb-10 16:27 UTC. Time now 2016-Feb-11 15:06 UTC.
Position N 43°15' E 003°54'.

Length 134 m; draft 7.4 m.

Type: Ship (hazmat cat A). MMSI: 304678000.

Date/timePositionNaut miles runAvg speedWind from/ knotsBaromVisibWave heightAir tempDewpointWater temp
2016-Feb-10 16:27N 43°15' E 003°54'1213.3
2016-Feb-10 15:33N 43°14' E 004°11'1313.1
2016-Feb-10 14:33N 43°13' E 004°28'1312.9
2016-Feb-10 13:33N 43°12' E 004°46'1312.9
2016-Feb-10 12:33N 43°11' E 005°04'1211.7
2016-Feb-10 11:33N 43°19' E 005°15'3 0.2
2016-Feb-09 20:32N 43°21' E 005°19'1111.4
2016-Feb-09 19:33N 43°12' E 005°10'1413.9
2016-Feb-09 18:33N 43°06' E 004°53'1413.7
2016-Feb-09 17:33N 43°01' E 004°35'1414.1
2016-Feb-09 16:32N 42°55' E 004°17'1514.2
2016-Feb-09 15:27N 42°49' E 003°58'42 3.0
2016-Feb-09 01:18N 42°31' E 003°07'0 0.0
2016-Feb-09 00:27N 42°31' E 003°07'81 3.9
2016-Feb-08 03:33N 41°12' E 002°41'1716.9
2016-Feb-08 02:33N 40°58' E 002°28'1717.0
2016-Feb-08 01:33N 40°44' E 002°16'1717.1
2016-Feb-08 00:33N 40°30' E 002°03'1717.2
2016-Feb-07 23:33N 40°16' E 001°50'1717.1
2016-Feb-07 22:33N 40°02' E 001°38'1717.0
2016-Feb-07 21:33N 39°48' E 001°25'13716.6
2016-Feb-07 13:18N 37°54' W 000°14'1216.6
2016-Feb-07 12:33N 37°44' W 000°22'1717.0
2016-Feb-07 11:33N 37°30' W 000°35'1716.5
2016-Feb-07 10:33N 37°20' W 000°51'1616.7
2016-Feb-07 09:34N 37°08' W 001°06'20617.2
2016-Feb-06 21:33N 35°60' W 005°08'  
2016-Feb-04 05:17N 30°25' W 009°40'0 0.0
2016-Feb-04 04:22N 30°25' W 009°40'0 0.0
2016-Feb-04 03:31N 30°25' W 009°40'0 0.0
2016-Feb-04 02:28N 30°25' W 009°40'0 0.0
2016-Feb-04 01:33N 30°25' W 009°40'0 0.0
2016-Feb-03 22:29N 30°25' W 009°40'0 0.1
2016-Feb-03 21:25N 30°25' W 009°40'2 0.8
2016-Feb-03 18:33N 30°26' W 009°43'1715.2
2016-Feb-03 17:26N 30°35' W 009°60'20114.3
2016-Feb-03 03:22N 33°34' W 008°11'  
Track history (hours):
 
Tides and Currents Weather Stations Pressure Air Temp Water Temp Dewpoint Dewpoint Depression Visibility Wind Speed Wind Dir Waves Ship Positions

Bf Caroda

Last reported at 2016-Feb-10 16:27 UTC. Time now 2016-Feb-11 15:06 UTC.
Position N 43°15' E 003°54'.

Length 134 m; draft 7.4 m.

Type: Ship (hazmat cat A). MMSI: 304678000.

Date/timePositionNaut miles runAvg speedWind from/ knotsBaromVisibWave heightAir tempDewpointWater temp
2016-Feb-10 16:27N 43°15' E 003°54'1213.3
2016-Feb-10 15:33N 43°14' E 004°11'1313.1
2016-Feb-10 14:33N 43°13' E 004°28'1312.9
2016-Feb-10 13:33N 43°12' E 004°46'1312.9
2016-Feb-10 12:33N 43°11' E 005°04'1211.7
2016-Feb-10 11:33N 43°19' E 005°15'3 0.2
2016-Feb-09 20:32N 43°21' E 005°19'1111.4
2016-Feb-09 19:33N 43°12' E 005°10'1413.9
2016-Feb-09 18:33N 43°06' E 004°53'1413.7
2016-Feb-09 17:33N 43°01' E 004°35'1414.1
2016-Feb-09 16:32N 42°55' E 004°17'1514.2
2016-Feb-09 15:27N 42°49' E 003°58'42 3.0
2016-Feb-09 01:18N 42°31' E 003°07'0 0.0
2016-Feb-09 00:27N 42°31' E 003°07'81 3.9
2016-Feb-08 03:33N 41°12' E 002°41'1716.9
2016-Feb-08 02:33N 40°58' E 002°28'1717.0
2016-Feb-08 01:33N 40°44' E 002°16'1717.1
2016-Feb-08 00:33N 40°30' E 002°03'1717.2
2016-Feb-07 23:33N 40°16' E 001°50'1717.1
2016-Feb-07 22:33N 40°02' E 001°38'1717.0
2016-Feb-07 21:33N 39°48' E 001°25'13716.6
2016-Feb-07 13:18N 37°54' W 000°14'1216.6
2016-Feb-07 12:33N 37°44' W 000°22'1717.0
2016-Feb-07 11:33N 37°30' W 000°35'1716.5
2016-Feb-07 10:33N 37°20' W 000°51'1616.7
2016-Feb-07 09:34N 37°08' W 001°06'20617.2
2016-Feb-06 21:33N 35°60' W 005°08'  
2016-Feb-04 05:17N 30°25' W 009°40'0 0.0
2016-Feb-04 04:22N 30°25' W 009°40'0 0.0
2016-Feb-04 03:31N 30°25' W 009°40'0 0.0
2016-Feb-04 02:28N 30°25' W 009°40'0 0.0
2016-Feb-04 01:33N 30°25' W 009°40'0 0.0
2016-Feb-03 22:29N 30°25' W 009°40'0 0.1
2016-Feb-03 21:25N 30°25' W 009°40'2 0.8
2016-Feb-03 18:33N 30°26' W 009°43'1715.2
2016-Feb-03 17:26N 30°35' W 009°60'20114.3
2016-Feb-03 03:22N 33°34' W 008°11'  

Dump ship's entire track history